South Chicago Heights, Illinois
Current Conditions -  °F | °C
As of 10:15 PM on Friday 31 Oct 2014 (Local Time) from KIGQ Reporting Station
Overcast Overcast  
Wind Chill: 25°   Ceiling: 5000
Heat Index: 37°   Visibility: 10mi
Dew Point: 30°   Wind: 25mph
Humidity: 77%   Direction: 10°N
Pressure: 30.3"   Gusts: 39mph
Location:  41.5054°N, 87.5907°W
Report Text: KIGQ 010315Z AUTO 01022G34KT 10SM SCT024 BKN050 OVC065 03/M01 A3030 RMK AO2 T00251012
Loading
Personal Weather Stations






























Interactive Weather Map
Tropical Storm Tracking
New forecast layout! Learn more

10-Day Weather Forecast

Advertisements
Track Severe Weather on mobile